createdAt,value
2022-08-05T00:00:17.257Z,7.85
2022-08-05T00:02:50.856Z,5.53
2022-08-05T00:06:03.179Z,6.70
2022-08-05T00:08:32.966Z,4.88
2022-08-05T00:10:56.530Z,5.45
2022-08-05T00:13:38.250Z,4.80
2022-08-05T00:16:08.718Z,5.53
2022-08-05T00:18:36.223Z,5.00
2022-08-05T00:21:06.887Z,4.90
2022-08-05T00:23:45.973Z,4.90
2022-08-05T00:26:20.212Z,6.43
2022-08-05T00:28:46.837Z,5.07
2022-08-05T00:31:16.464Z,5.28
2022-08-05T00:34:55.196Z,5.07
2022-08-05T00:37:10.275Z,4.30
2022-08-05T00:39:41.634Z,4.72
2022-08-05T00:42:31.699Z,4.22
2022-08-05T00:44:59.391Z,4.50
2022-08-05T00:47:26.343Z,4.30
2022-08-05T00:50:12.824Z,4.47
2022-08-05T00:52:40.114Z,4.45
2022-08-05T00:55:06.907Z,4.70
2022-08-05T00:57:55.256Z,4.00
2022-08-05T01:00:20.112Z,3.90
2022-08-05T01:02:50.201Z,4.60
2022-08-05T01:05:16.900Z,4.30
2022-08-05T01:08:40.111Z,3.58
2022-08-05T01:10:41.995Z,3.90
2022-08-05T01:13:27.537Z,3.80
2022-08-05T01:16:26.134Z,4.38
2022-08-05T01:19:00.819Z,4.07
2022-08-05T01:21:38.080Z,3.75
2022-08-05T01:24:22.048Z,4.30
2022-08-05T01:27:25.548Z,3.50
2022-08-05T01:29:56.244Z,3.60
2022-08-05T01:32:27.540Z,4.05
2022-08-05T01:34:58.667Z,4.07
2022-08-05T01:37:55.177Z,4.22
2022-08-05T01:40:28.960Z,4.20
2022-08-05T01:42:59.016Z,4.38
2022-08-05T01:45:27.786Z,4.47
2022-08-05T01:48:03.199Z,5.10
2022-08-05T01:50:39.965Z,4.38
2022-08-05T01:53:13.014Z,4.10
2022-08-05T01:55:43.340Z,3.90
2022-08-05T01:58:15.716Z,4.50
2022-08-05T02:00:49.359Z,4.35
2022-08-05T02:03:31.795Z,4.93
2022-08-05T02:06:03.392Z,5.18
2022-08-05T02:08:31.635Z,4.65
2022-08-05T02:11:12.574Z,4.60
2022-08-05T02:13:55.136Z,4.70
2022-08-05T02:16:27.589Z,3.78
2022-08-05T02:19:15.831Z,4.05
2022-08-05T02:21:52.428Z,3.83
2022-08-05T02:24:23.388Z,4.22
2022-08-05T02:26:54.939Z,3.60
2022-08-05T02:29:59.233Z,4.93
2022-08-05T02:32:19.875Z,3.40
2022-08-05T02:34:54.937Z,3.83
2022-08-05T02:37:23.789Z,4.25
2022-08-05T02:39:52.580Z,3.85
2022-08-05T02:42:25.818Z,4.10
2022-08-05T02:44:53.252Z,3.42
2022-08-05T02:47:21.576Z,3.10
2022-08-05T02:49:49.095Z,3.15
2022-08-05T02:52:29.798Z,3.22
2022-08-05T02:54:58.622Z,3.80
2022-08-05T02:58:09.458Z,3.10
2022-08-05T03:00:17.246Z,3.33
2022-08-05T03:02:46.639Z,3.17
2022-08-05T03:05:14.576Z,3.08
2022-08-05T03:08:06.811Z,2.92
2022-08-05T03:10:29.061Z,3.15
2022-08-05T03:15:23.507Z,3.17
2022-08-05T03:17:53.918Z,3.45
2022-08-05T03:20:22.034Z,3.00
2022-08-05T03:22:50.588Z,4.20
2022-08-05T03:25:32.512Z,3.53
2022-08-05T03:28:08.938Z,4.78
2022-08-05T03:30:36.793Z,4.47
2022-08-05T03:33:06.362Z,3.40
2022-08-05T03:35:41.022Z,3.53
2022-08-05T03:38:10.405Z,3.05
2022-08-05T03:40:41.115Z,3.63
2022-08-05T03:43:15.975Z,3.38
2022-08-05T03:45:59.518Z,2.95
2022-08-05T03:48:29.233Z,2.92
2022-08-05T03:52:34.876Z,2.75
2022-08-05T03:55:51.171Z,3.25
2022-08-05T03:57:15.966Z,2.88
2022-08-05T04:00:05.763Z,3.67
2022-08-05T04:02:45.204Z,3.13
2022-08-05T04:05:24.556Z,3.00
2022-08-05T04:07:57.987Z,3.08
2022-08-05T04:10:27.772Z,3.72
2022-08-05T04:12:58.757Z,3.38
2022-08-05T04:15:28.001Z,3.15
2022-08-05T04:20:28.738Z,3.35
2022-08-05T04:22:55.284Z,2.55
2022-08-05T04:25:38.437Z,3.25
2022-08-05T04:28:11.377Z,2.78
2022-08-05T04:30:39.656Z,3.50
2022-08-05T04:33:06.338Z,3.65
2022-08-05T04:36:16.625Z,3.17
2022-08-05T04:38:21.037Z,2.90
2022-08-05T04:40:50.971Z,3.50
2022-08-05T04:43:17.891Z,3.83
2022-08-05T04:45:55.596Z,3.63
2022-08-05T04:48:27.570Z,2.95
2022-08-05T04:51:01.637Z,3.17
2022-08-05T04:53:33.347Z,3.17
2022-08-05T04:56:32.931Z,5.55
2022-08-05T04:58:49.250Z,3.35
2022-08-05T05:01:15.944Z,3.20
2022-08-05T05:04:02.416Z,3.45
2022-08-05T05:06:39.072Z,3.90
2022-08-05T05:09:14.310Z,4.18
2022-08-05T05:11:54.480Z,3.83
2022-08-05T05:14:27.928Z,3.80
2022-08-05T05:16:58.734Z,3.80
2022-08-05T05:19:27.383Z,3.28
2022-08-05T05:22:03.590Z,4.53
2022-08-05T05:24:56.442Z,3.67
2022-08-05T05:27:41.396Z,4.00
2022-08-05T05:30:15.693Z,3.38
2022-08-05T05:32:56.807Z,3.38
2022-08-05T05:35:24.371Z,3.33
2022-08-05T05:37:59.726Z,4.03
2022-08-05T05:40:28.678Z,4.50
2022-08-05T05:42:57.584Z,4.20
2022-08-05T05:45:24.831Z,4.00
2022-08-05T05:48:05.618Z,4.80
2022-08-05T05:50:35.742Z,4.18
2022-08-05T05:53:21.496Z,4.70
2022-08-05T05:55:52.364Z,4.07
2022-08-05T05:58:30.272Z,4.35
2022-08-05T06:01:04.881Z,3.95
2022-08-05T06:04:00.664Z,3.65
2022-08-05T06:06:31.210Z,5.18
2022-08-05T06:08:59.820Z,4.40
2022-08-05T06:11:26.349Z,5.35
2022-08-05T06:13:55.815Z,4.55
2022-08-05T06:16:30.547Z,6.18
2022-08-05T06:19:05.377Z,6.38
2022-08-05T06:21:36.747Z,6.72
2022-08-05T06:24:11.402Z,6.43
2022-08-05T06:26:51.201Z,6.68
2022-08-05T06:29:26.488Z,7.30
2022-08-05T06:32:21.020Z,6.45
2022-08-05T06:34:53.537Z,7.82
2022-08-05T06:37:39.443Z,8.40
2022-08-05T06:40:09.885Z,6.65
2022-08-05T06:42:36.982Z,8.65
2022-08-05T06:45:08.661Z,7.72
2022-08-05T06:48:36.207Z,8.18
2022-08-05T06:50:23.054Z,7.35
2022-08-05T06:52:58.777Z,9.80
2022-08-05T06:55:36.487Z,10.02
2022-08-05T06:58:29.593Z,9.70
2022-08-05T07:00:51.310Z,12.45
2022-08-05T07:03:18.482Z,16.05
2022-08-05T07:05:46.429Z,14.55
2022-08-05T07:08:13.390Z,16.02
2022-08-05T07:10:53.201Z,20.95
2022-08-05T07:13:58.457Z,18.25
2022-08-05T07:17:56.545Z,22.98
2022-08-05T07:22:28.233Z,15.00
2022-08-05T07:25:23.803Z,15.00
2022-08-05T07:27:58.373Z,17.45
2022-08-05T07:30:33.738Z,19.20
2022-08-05T07:33:09.255Z,28.50
2022-08-05T07:36:01.995Z,19.30
2022-08-05T07:38:34.420Z,20.70
2022-08-05T07:42:07.098Z,17.90
2022-08-05T07:43:59.136Z,18.02
2022-08-05T07:46:26.963Z,19.52
2022-08-05T07:49:02.504Z,26.10
2022-08-05T07:51:40.208Z,24.77
2022-08-05T07:54:10.050Z,28.90
2022-08-05T07:56:39.230Z,35.47
2022-08-05T07:59:38.808Z,33.20
2022-08-05T08:02:10.572Z,39.83
2022-08-05T08:04:45.230Z,43.10
2022-08-05T08:07:12.835Z,47.72
2022-08-05T08:09:39.368Z,51.13
2022-08-05T08:12:15.911Z,57.58
2022-08-05T08:14:52.743Z,58.53
2022-08-05T08:17:19.608Z,67.10
2022-08-05T08:20:21.697Z,72.10
2022-08-05T08:22:35.494Z,72.03
2022-08-05T08:25:02.774Z,59.60
2022-08-05T08:27:40.021Z,64.22
2022-08-05T08:30:28.520Z,64.00
2022-08-05T08:33:02.411Z,63.13
2022-08-05T08:35:35.183Z,64.93
2022-08-05T08:38:07.855Z,71.53
2022-08-05T08:40:35.874Z,72.75
2022-08-05T08:45:16.248Z,78.70
2022-08-05T08:45:52.770Z,82.60
2022-08-05T08:48:22.362Z,90.75
2022-08-05T08:52:01.853Z,97.18
2022-08-05T08:53:53.995Z,103.63
2022-08-05T08:56:22.196Z,110.25
2022-08-05T08:58:49.580Z,117.70
2022-08-05T09:01:19.013Z,128.13
2022-08-05T09:03:54.507Z,131.32
2022-08-05T09:06:24.262Z,143.98
2022-08-05T09:08:55.385Z,144.47
2022-08-05T09:11:51.783Z,133.80
2022-08-05T09:14:59.091Z,163.38
2022-08-05T09:16:56.699Z,150.95
2022-08-05T09:19:27.678Z,153.18
2022-08-05T09:22:22.209Z,130.95
2022-08-05T09:24:44.803Z,122.10
2022-08-05T09:28:05.427Z,128.57
2022-08-05T09:30:24.077Z,135.95
2022-08-05T09:32:51.222Z,132.32
2022-08-05T09:35:26.459Z,122.55
2022-08-05T09:38:12.516Z,104.90
2022-08-05T09:40:51.901Z,107.85
2022-08-05T09:43:41.619Z,115.63
2022-08-05T09:46:30.683Z,125.65
2022-08-05T09:49:08.358Z,134.25
2022-08-05T09:51:45.011Z,114.57
2022-08-05T09:54:21.423Z,105.88
2022-08-05T09:56:55.534Z,111.75
2022-08-05T09:59:24.488Z,116.72
2022-08-05T10:01:55.531Z,119.60
2022-08-05T10:04:38.638Z,124.15
2022-08-05T10:07:32.019Z,128.30
2022-08-05T10:10:14.283Z,125.72
2022-08-05T10:12:51.582Z,123.47
2022-08-05T10:15:21.035Z,134.98
2022-08-05T10:18:08.760Z,128.65
2022-08-05T10:20:48.753Z,130.57
2022-08-05T10:23:55.233Z,123.97
2022-08-05T10:26:14.007Z,132.55
2022-08-05T10:28:46.355Z,126.80
2022-08-05T10:32:53.122Z,121.15
2022-08-05T10:34:02.403Z,120.45
2022-08-05T10:36:29.871Z,124.63
2022-08-05T10:39:05.107Z,157.95
2022-08-05T10:42:01.003Z,124.53
2022-08-05T10:44:29.453Z,129.25
2022-08-05T10:46:56.960Z,112.95
2022-08-05T10:49:27.531Z,126.88
2022-08-05T10:52:03.222Z,126.82
2022-08-05T10:55:06.840Z,80.13
2022-08-05T10:57:35.002Z,125.03
2022-08-05T11:00:23.100Z,155.23
2022-08-05T11:03:24.893Z,72.40
2022-08-05T11:06:16.135Z,76.57
2022-08-05T11:09:32.211Z,63.50
2022-08-05T11:12:23.551Z,45.28
2022-08-05T11:15:19.338Z,49.28
2022-08-05T11:17:57.268Z,44.72
2022-08-05T11:20:44.314Z,40.35
2022-08-05T11:23:33.444Z,62.63
2022-08-05T11:26:28.610Z,45.08
2022-08-05T11:29:06.714Z,49.40
2022-08-05T11:31:58.871Z,50.22
2022-08-05T11:34:39.873Z,39.95
2022-08-05T11:38:37.243Z,38.00
2022-08-05T11:41:00.815Z,43.35
2022-08-05T11:44:00.918Z,40.17
2022-08-05T11:46:32.319Z,39.65
2022-08-05T11:49:01.457Z,40.47
2022-08-05T11:51:44.667Z,41.35
2022-08-05T11:54:33.175Z,41.78
2022-08-05T11:57:02.262Z,35.78
2022-08-05T11:59:49.357Z,38.60
2022-08-05T12:02:29.855Z,36.85
2022-08-05T12:05:07.328Z,32.55
2022-08-05T12:08:09.060Z,36.30
2022-08-05T12:10:43.508Z,35.92
2022-08-05T12:13:18.664Z,35.97
2022-08-05T12:16:14.590Z,35.88
2022-08-05T12:18:49.449Z,28.33
2022-08-05T12:21:29.822Z,25.77
2022-08-05T12:24:08.579Z,22.92
2022-08-05T12:26:36.888Z,23.33
2022-08-05T12:29:09.377Z,19.85
2022-08-05T12:31:41.538Z,19.60
2022-08-05T12:34:20.519Z,22.63
2022-08-05T12:36:49.783Z,20.33
2022-08-05T12:39:17.682Z,27.45
2022-08-05T12:41:45.750Z,20.85
2022-08-05T12:44:28.531Z,19.98
2022-08-05T12:47:00.898Z,18.83
2022-08-05T12:50:03.353Z,19.73
2022-08-05T12:52:30.414Z,19.05
2022-08-05T12:55:02.203Z,18.60
2022-08-05T12:58:51.531Z,18.95
2022-08-05T13:02:00.182Z,18.67
2022-08-05T13:03:14.677Z,19.67
2022-08-05T13:05:41.529Z,20.35
2022-08-05T13:08:08.932Z,20.40
2022-08-05T13:10:48.790Z,20.65
2022-08-05T13:14:06.602Z,19.70
2022-08-05T13:16:12.675Z,19.23
2022-08-05T13:19:01.456Z,21.13
2022-08-05T13:21:47.724Z,19.08
2022-08-05T13:24:36.248Z,20.13
2022-08-05T13:27:03.831Z,19.40
2022-08-05T13:29:37.762Z,19.05
2022-08-05T13:32:05.512Z,18.30
2022-08-05T13:34:32.683Z,18.67
2022-08-05T13:37:00.262Z,18.58
2022-08-05T13:40:13.761Z,22.05
2022-08-05T13:42:15.249Z,21.88
2022-08-05T13:44:45.839Z,22.52
2022-08-05T13:47:34.583Z,21.80
2022-08-05T13:50:04.598Z,22.88
2022-08-05T13:52:35.489Z,22.58
2022-08-05T13:55:02.960Z,21.90
2022-08-05T13:57:51.483Z,21.77
2022-08-05T14:00:27.505Z,22.17
2022-08-05T14:02:56.444Z,21.98
2022-08-05T14:05:48.278Z,21.30
2022-08-05T14:08:20.432Z,20.65
2022-08-05T14:10:48.264Z,22.75
2022-08-05T14:13:15.418Z,21.75
2022-08-05T14:16:08.520Z,23.33
2022-08-05T14:18:28.880Z,22.63
2022-08-05T14:20:55.459Z,20.48
2022-08-05T14:23:25.109Z,20.10
2022-08-05T14:25:57.976Z,20.15
2022-08-05T14:28:28.702Z,17.58
2022-08-05T14:30:56.621Z,18.08
2022-08-05T14:33:23.877Z,16.58
2022-08-05T14:35:51.715Z,17.35
2022-08-05T14:38:31.987Z,16.40
2022-08-05T14:41:06.638Z,16.60
2022-08-05T14:44:01.689Z,15.88
2022-08-05T14:46:29.110Z,15.65
2022-08-05T14:51:24.309Z,16.73
2022-08-05T14:54:26.449Z,15.93
2022-08-05T14:56:44.032Z,16.77
2022-08-05T14:59:11.538Z,16.80
2022-08-05T15:01:48.357Z,17.60
2022-08-05T15:04:17.392Z,17.90
2022-08-05T15:06:49.370Z,17.40
2022-08-05T15:09:51.618Z,17.45
2022-08-05T15:12:08.903Z,18.00
2022-08-05T15:14:48.136Z,17.60
2022-08-05T15:17:45.580Z,17.88
2022-08-05T15:20:04.907Z,18.63
2022-08-05T15:22:31.587Z,18.55
2022-08-05T15:24:59.307Z,18.13
2022-08-05T15:27:26.115Z,19.00
2022-08-05T15:29:59.159Z,18.40
2022-08-05T15:32:27.520Z,19.85
2022-08-05T15:34:55.467Z,18.55
2022-08-05T15:38:32.299Z,18.08
2022-08-05T15:40:59.159Z,16.92
2022-08-05T15:43:01.616Z,16.92
2022-08-05T15:45:39.012Z,16.40
2022-08-05T15:48:05.834Z,18.42
2022-08-05T15:50:33.537Z,16.65
2022-08-05T15:53:05.136Z,18.17
2022-08-05T15:56:01.805Z,16.83
2022-08-05T15:58:19.323Z,16.90
2022-08-05T16:01:03.546Z,18.42
2022-08-05T16:03:36.364Z,17.33
2022-08-05T16:06:08.767Z,17.38
2022-08-05T16:08:38.565Z,17.60
2022-08-05T16:11:05.318Z,16.98
2022-08-05T16:13:34.758Z,18.65
2022-08-05T16:16:03.330Z,17.80
2022-08-05T16:18:30.948Z,17.52
2022-08-05T16:20:58.592Z,16.92
2022-08-05T16:23:28.402Z,16.60
2022-08-05T16:26:14.920Z,17.33
2022-08-05T16:28:42.050Z,17.85
2022-08-05T16:31:10.506Z,17.48
2022-08-05T16:33:41.537Z,19.33
2022-08-05T16:36:09.090Z,18.20
2022-08-05T16:38:36.987Z,18.05
2022-08-05T16:42:24.142Z,19.38
2022-08-05T16:43:56.440Z,17.77
2022-08-05T16:46:24.603Z,18.83
2022-08-05T16:48:51.977Z,19.30
2022-08-05T16:51:19.317Z,18.33
2022-08-05T16:54:03.885Z,18.73
2022-08-05T16:56:36.910Z,22.25
2022-08-05T16:59:10.137Z,18.90
2022-08-05T17:01:53.177Z,20.63
2022-08-05T17:04:22.005Z,19.30
2022-08-05T17:06:53.384Z,19.73
2022-08-05T17:09:20.493Z,19.52
2022-08-05T17:11:48.391Z,19.63
2022-08-05T17:14:34.457Z,20.20
2022-08-05T17:17:04.920Z,21.38
2022-08-05T17:19:31.568Z,21.65
2022-08-05T17:21:58.565Z,22.15
2022-08-05T17:24:35.126Z,21.88
2022-08-05T17:27:07.134Z,22.30
2022-08-05T17:29:41.142Z,23.00
2022-08-05T17:32:16.706Z,23.05
2022-08-05T17:34:46.240Z,23.77
2022-08-05T17:37:29.532Z,23.05
2022-08-05T17:40:10.196Z,23.05
2022-08-05T17:42:41.789Z,22.17
2022-08-05T17:45:20.379Z,20.23
2022-08-05T17:47:54.037Z,20.45
2022-08-05T17:50:28.504Z,21.75
2022-08-05T17:52:59.064Z,22.38
2022-08-05T17:55:37.400Z,29.90
2022-08-05T17:58:12.564Z,32.20
2022-08-05T18:00:47.456Z,38.63
2022-08-05T18:03:33.256Z,47.90
2022-08-05T18:06:06.142Z,57.13
2022-08-05T18:08:44.092Z,75.05
2022-08-05T18:11:11.278Z,80.70
2022-08-05T18:13:51.631Z,89.28
2022-08-05T18:16:20.558Z,90.65
2022-08-05T18:18:48.083Z,98.15
2022-08-05T18:21:19.862Z,96.88
2022-08-05T18:23:53.774Z,105.93
2022-08-05T18:26:27.449Z,123.00
2022-08-05T18:28:56.903Z,123.28
2022-08-05T18:31:24.248Z,138.77
2022-08-05T18:33:52.120Z,154.02
2022-08-05T18:36:19.180Z,173.20
2022-08-05T18:38:46.498Z,203.43
2022-08-05T18:41:56.463Z,246.20
2022-08-05T18:44:06.523Z,300.55
2022-08-05T18:46:34.621Z,261.70
2022-08-05T18:49:23.703Z,336.38
2022-08-05T18:52:15.827Z,329.40
2022-08-05T18:54:45.868Z,316.67
2022-08-05T18:57:15.367Z,304.38
2022-08-05T19:00:01.777Z,313.05
2022-08-05T19:02:29.644Z,291.90
2022-08-05T19:05:02.193Z,302.33
2022-08-05T19:07:49.864Z,285.13
2022-08-05T19:10:26.597Z,270.35
2022-08-05T19:12:58.476Z,263.45
2022-08-05T19:15:59.346Z,299.55
2022-08-05T19:18:21.944Z,292.10
2022-08-05T19:20:52.347Z,319.98
2022-08-05T19:24:06.053Z,285.42
2022-08-05T19:26:09.417Z,295.90
2022-08-05T19:28:42.095Z,317.50
2022-08-05T19:31:13.322Z,344.67
2022-08-05T19:33:48.453Z,343.20
2022-08-05T19:36:23.013Z,366.60
2022-08-05T19:38:49.535Z,379.58
2022-08-05T19:41:16.107Z,362.85
2022-08-05T19:44:05.475Z,373.63
2022-08-05T19:46:30.976Z,396.75
2022-08-05T19:49:03.161Z,339.48
2022-08-05T19:52:09.411Z,320.70
2022-08-05T19:54:31.285Z,340.27
2022-08-05T19:56:59.789Z,395.58
2022-08-05T19:59:54.586Z,406.08
2022-08-05T20:02:17.658Z,365.98
2022-08-05T20:04:45.797Z,314.50
2022-08-05T20:07:13.878Z,313.83
2022-08-05T20:09:55.076Z,326.63
2022-08-05T20:12:25.669Z,283.08
2022-08-05T20:14:53.229Z,261.02
2022-08-05T20:17:23.626Z,315.88
2022-08-05T20:19:57.401Z,300.33
2022-08-05T20:22:26.970Z,184.68
2022-08-05T20:24:55.415Z,177.70
2022-08-05T20:27:26.621Z,234.45
2022-08-05T20:29:57.873Z,191.85
2022-08-05T20:32:26.084Z,254.63
2022-08-05T20:34:52.775Z,252.02
2022-08-05T20:38:05.010Z,278.70
2022-08-05T20:40:06.820Z,225.70
2022-08-05T20:42:33.449Z,196.63
2022-08-05T20:45:02.640Z,225.70
2022-08-05T20:47:32.240Z,193.57
2022-08-05T20:49:59.507Z,242.30
2022-08-05T20:52:26.569Z,294.67
2022-08-05T20:54:59.579Z,260.63
2022-08-05T20:57:43.038Z,217.55
2022-08-05T21:00:41.563Z,231.30
2022-08-05T21:03:06.196Z,160.13
2022-08-05T21:05:47.581Z,177.43
2022-08-05T21:08:21.087Z,206.25
2022-08-05T21:10:53.568Z,231.50
2022-08-05T21:13:37.796Z,225.55
2022-08-05T21:16:06.896Z,172.23
2022-08-05T21:18:34.257Z,208.50
2022-08-05T21:21:02.439Z,145.10
2022-08-05T21:23:28.952Z,163.70
2022-08-05T21:26:04.238Z,136.35
2022-08-05T21:28:47.912Z,115.57
2022-08-05T21:31:18.350Z,117.45
2022-08-05T21:33:47.551Z,111.55
2022-08-05T21:36:19.041Z,120.97
2022-08-05T21:38:54.774Z,119.28
2022-08-05T21:41:21.547Z,106.82
2022-08-05T21:44:01.704Z,104.70
2022-08-05T21:46:31.058Z,100.88
2022-08-05T21:48:59.864Z,100.18
2022-08-05T21:52:22.105Z,92.43
2022-08-05T21:54:13.171Z,93.00
2022-08-05T21:56:44.204Z,93.72
2022-08-05T21:59:24.082Z,100.47
2022-08-05T22:01:54.572Z,71.57
2022-08-05T22:04:25.382Z,84.25
2022-08-05T22:06:52.577Z,65.88
2022-08-05T22:09:21.083Z,66.75
2022-08-05T22:11:48.973Z,64.22
2022-08-05T22:14:35.279Z,64.68
2022-08-05T22:17:06.614Z,65.60
2022-08-05T22:20:03.575Z,63.25
2022-08-05T22:22:26.801Z,63.95
2022-08-05T22:25:21.035Z,60.72
2022-08-05T22:28:08.827Z,76.55
2022-08-05T22:30:44.204Z,62.30
2022-08-05T22:33:57.699Z,63.35
2022-08-05T22:36:14.465Z,59.05
2022-08-05T22:38:42.569Z,68.40
2022-08-05T22:41:10.205Z,91.25
2022-08-05T22:43:38.279Z,65.00
2022-08-05T22:46:13.255Z,72.28
2022-08-05T22:48:40.969Z,67.70
2022-08-05T22:51:07.724Z,75.68
2022-08-05T22:53:35.580Z,64.43
2022-08-05T22:56:02.816Z,67.72
2022-08-05T22:58:29.323Z,66.43
2022-08-05T23:00:56.960Z,60.70
2022-08-05T23:03:59.078Z,69.18
2022-08-05T23:06:10.498Z,70.57
2022-08-05T23:08:37.044Z,61.80
2022-08-05T23:11:03.599Z,72.00
2022-08-05T23:13:30.121Z,67.30
2022-08-05T23:15:56.827Z,63.17
2022-08-05T23:18:23.504Z,77.93
2022-08-05T23:20:50.051Z,69.72
2022-08-05T23:23:16.659Z,63.85
2022-08-05T23:25:53.008Z,69.72
2022-08-05T23:28:28.735Z,56.60
2022-08-05T23:30:56.373Z,53.47
2022-08-05T23:34:04.983Z,54.17
2022-08-05T23:36:39.876Z,61.08
2022-08-05T23:39:17.491Z,53.20
2022-08-05T23:41:59.089Z,52.75
2022-08-05T23:44:28.056Z,56.55
2022-08-05T23:46:58.780Z,50.95
2022-08-05T23:49:33.919Z,53.45
2022-08-05T23:52:21.764Z,58.90
2022-08-05T23:54:52.540Z,57.10
2022-08-05T23:57:19.283Z,57.13
